sensor_id;sensor_type;location;lat;lon;timestamp;P1;durP1;ratioP1;P2;durP2;ratioP2
10458;SDS011;5277;48.722;8.736;2023-05-10T00:00:57;6.82;;;1.00;;
10458;SDS011;5277;48.722;8.736;2023-05-10T00:03:23;9.23;;;1.00;;
10458;SDS011;5277;48.722;8.736;2023-05-10T00:05:50;1.10;;;0.70;;
10458;SDS011;5277;48.722;8.736;2023-05-10T00:08:16;1.52;;;0.50;;
10458;SDS011;5277;48.722;8.736;2023-05-10T00:10:42;7.40;;;1.30;;
10458;SDS011;5277;48.722;8.736;2023-05-10T00:13:07;0.63;;;0.40;;
10458;SDS011;5277;48.722;8.736;2023-05-10T00:15:33;2.58;;;1.15;;
10458;SDS011;5277;48.722;8.736;2023-05-10T00:17:59;0.98;;;0.50;;
10458;SDS011;5277;48.722;8.736;2023-05-10T00:20:25;9.82;;;0.70;;
10458;SDS011;5277;48.722;8.736;2023-05-10T00:22:51;3.00;;;0.40;;
10458;SDS011;5277;48.722;8.736;2023-05-10T00:25:16;1.65;;;0.60;;
10458;SDS011;5277;48.722;8.736;2023-05-10T00:27:42;1.92;;;0.50;;
10458;SDS011;5277;48.722;8.736;2023-05-10T00:30:09;2.78;;;0.65;;
10458;SDS011;5277;48.722;8.736;2023-05-10T00:32:37;3.17;;;0.50;;
10458;SDS011;5277;48.722;8.736;2023-05-10T00:35:05;0.98;;;0.30;;
10458;SDS011;5277;48.722;8.736;2023-05-10T00:37:33;1.95;;;0.38;;
10458;SDS011;5277;48.722;8.736;2023-05-10T00:39:58;0.55;;;0.50;;
10458;SDS011;5277;48.722;8.736;2023-05-10T00:42:24;3.60;;;0.85;;
10458;SDS011;5277;48.722;8.736;2023-05-10T00:44:50;3.92;;;0.60;;
10458;SDS011;5277;48.722;8.736;2023-05-10T00:47:16;1.60;;;0.50;;
10458;SDS011;5277;48.722;8.736;2023-05-10T00:49:42;3.28;;;0.40;;
10458;SDS011;5277;48.722;8.736;2023-05-10T00:52:08;3.15;;;0.50;;
10458;SDS011;5277;48.722;8.736;2023-05-10T00:54:34;0.40;;;0.40;;
10458;SDS011;5277;48.722;8.736;2023-05-10T00:57:01;1.30;;;0.32;;
10458;SDS011;5277;48.722;8.736;2023-05-10T00:59:27;1.23;;;0.52;;
10458;SDS011;5277;48.722;8.736;2023-05-10T01:01:53;3.30;;;0.50;;
10458;SDS011;5277;48.722;8.736;2023-05-10T01:04:25;1.15;;;0.40;;
10458;SDS011;5277;48.722;8.736;2023-05-10T01:06:54;2.28;;;0.45;;
10458;SDS011;5277;48.722;8.736;2023-05-10T01:09:23;4.40;;;0.40;;
10458;SDS011;5277;48.722;8.736;2023-05-10T01:11:52;3.13;;;0.35;;
10458;SDS011;5277;48.722;8.736;2023-05-10T01:14:19;1.25;;;0.40;;
10458;SDS011;5277;48.722;8.736;2023-05-10T01:16:53;1.73;;;0.47;;
10458;SDS011;5277;48.722;8.736;2023-05-10T01:19:26;1.92;;;0.45;;
10458;SDS011;5277;48.722;8.736;2023-05-10T01:22:11;7.40;;;0.50;;
10458;SDS011;5277;48.722;8.736;2023-05-10T01:33:00;2.40;;;0.55;;
10458;SDS011;5277;48.722;8.736;2023-05-10T01:44:02;4.78;;;1.05;;
10458;SDS011;5277;48.722;8.736;2023-05-10T01:46:36;3.58;;;0.75;;
10458;SDS011;5277;48.722;8.736;2023-05-10T01:49:05;1.30;;;0.75;;
10458;SDS011;5277;48.722;8.736;2023-05-10T01:51:53;2.38;;;0.70;;
10458;SDS011;5277;48.722;8.736;2023-05-10T01:54:24;6.18;;;0.80;;
10458;SDS011;5277;48.722;8.736;2023-05-10T01:56:55;4.45;;;0.60;;
10458;SDS011;5277;48.722;8.736;2023-05-10T01:59:26;5.70;;;0.70;;
10458;SDS011;5277;48.722;8.736;2023-05-10T02:01:58;0.88;;;0.50;;
10458;SDS011;5277;48.722;8.736;2023-05-10T02:04:26;3.97;;;0.68;;
10458;SDS011;5277;48.722;8.736;2023-05-10T02:06:53;3.33;;;0.77;;
10458;SDS011;5277;48.722;8.736;2023-05-10T02:09:20;2.83;;;0.82;;
10458;SDS011;5277;48.722;8.736;2023-05-10T02:11:48;14.35;;;1.10;;
10458;SDS011;5277;48.722;8.736;2023-05-10T02:14:15;8.55;;;1.63;;
10458;SDS011;5277;48.722;8.736;2023-05-10T02:16:42;11.88;;;1.00;;
10458;SDS011;5277;48.722;8.736;2023-05-10T02:19:09;7.10;;;1.20;;
10458;SDS011;5277;48.722;8.736;2023-05-10T02:21:38;10.32;;;1.50;;
10458;SDS011;5277;48.722;8.736;2023-05-10T02:24:05;5.97;;;0.90;;
10458;SDS011;5277;48.722;8.736;2023-05-10T02:26:32;6.75;;;1.10;;
10458;SDS011;5277;48.722;8.736;2023-05-10T02:29:00;6.35;;;1.20;;
10458;SDS011;5277;48.722;8.736;2023-05-10T02:31:28;1.70;;;0.80;;
10458;SDS011;5277;48.722;8.736;2023-05-10T02:33:57;2.78;;;1.05;;
10458;SDS011;5277;48.722;8.736;2023-05-10T02:36:23;12.32;;;1.17;;
10458;SDS011;5277;48.722;8.736;2023-05-10T02:38:52;8.55;;;1.40;;
10458;SDS011;5277;48.722;8.736;2023-05-10T02:41:19;8.75;;;1.20;;
10458;SDS011;5277;48.722;8.736;2023-05-10T02:43:47;5.90;;;1.30;;
10458;SDS011;5277;48.722;8.736;2023-05-10T02:46:16;4.80;;;1.13;;
10458;SDS011;5277;48.722;8.736;2023-05-10T02:48:42;1.20;;;0.95;;
10458;SDS011;5277;48.722;8.736;2023-05-10T02:51:08;5.07;;;1.38;;
10458;SDS011;5277;48.722;8.736;2023-05-10T02:53:38;4.90;;;0.98;;
10458;SDS011;5277;48.722;8.736;2023-05-10T02:56:09;5.93;;;1.15;;
10458;SDS011;5277;48.722;8.736;2023-05-10T02:58:40;6.20;;;1.10;;
10458;SDS011;5277;48.722;8.736;2023-05-10T03:01:06;5.85;;;1.20;;
10458;SDS011;5277;48.722;8.736;2023-05-10T03:03:33;8.23;;;1.55;;
10458;SDS011;5277;48.722;8.736;2023-05-10T03:05:59;1.92;;;1.10;;
10458;SDS011;5277;48.722;8.736;2023-05-10T03:08:24;2.83;;;1.35;;
10458;SDS011;5277;48.722;8.736;2023-05-10T03:13:57;6.00;;;1.33;;
10458;SDS011;5277;48.722;8.736;2023-05-10T03:17:30;3.92;;;1.25;;
10458;SDS011;5277;48.722;8.736;2023-05-10T03:19:56;1.38;;;1.10;;
10458;SDS011;5277;48.722;8.736;2023-05-10T03:22:34;5.28;;;1.45;;
10458;SDS011;5277;48.722;8.736;2023-05-10T03:25:03;5.03;;;1.40;;
10458;SDS011;5277;48.722;8.736;2023-05-10T03:27:31;3.78;;;1.38;;
10458;SDS011;5277;48.722;8.736;2023-05-10T03:29:57;7.68;;;1.38;;
10458;SDS011;5277;48.722;8.736;2023-05-10T03:32:25;1.52;;;1.42;;
10458;SDS011;5277;48.722;8.736;2023-05-10T03:34:52;4.32;;;1.73;;
10458;SDS011;5277;48.722;8.736;2023-05-10T03:37:17;2.53;;;1.48;;
10458;SDS011;5277;48.722;8.736;2023-05-10T03:39:43;10.25;;;1.65;;
10458;SDS011;5277;48.722;8.736;2023-05-10T03:42:09;3.90;;;1.55;;
10458;SDS011;5277;48.722;8.736;2023-05-10T03:44:36;6.75;;;1.73;;
10458;SDS011;5277;48.722;8.736;2023-05-10T03:47:03;4.50;;;1.55;;
10458;SDS011;5277;48.722;8.736;2023-05-10T03:49:29;9.13;;;1.38;;
10458;SDS011;5277;48.722;8.736;2023-05-10T03:51:54;5.90;;;1.50;;
10458;SDS011;5277;48.722;8.736;2023-05-10T03:54:20;3.72;;;1.50;;
10458;SDS011;5277;48.722;8.736;2023-05-10T03:56:46;1.65;;;1.38;;
10458;SDS011;5277;48.722;8.736;2023-05-10T03:59:13;3.38;;;1.80;;
10458;SDS011;5277;48.722;8.736;2023-05-10T04:01:38;3.20;;;1.90;;
10458;SDS011;5277;48.722;8.736;2023-05-10T04:04:07;4.95;;;1.77;;
10458;SDS011;5277;48.722;8.736;2023-05-10T04:06:33;3.53;;;1.38;;
10458;SDS011;5277;48.722;8.736;2023-05-10T04:08:58;2.55;;;1.80;;
10458;SDS011;5277;48.722;8.736;2023-05-10T04:11:25;4.60;;;1.67;;
10458;SDS011;5277;48.722;8.736;2023-05-10T04:13:51;5.70;;;1.50;;
10458;SDS011;5277;48.722;8.736;2023-05-10T04:16:16;8.43;;;1.52;;
10458;SDS011;5277;48.722;8.736;2023-05-10T04:18:42;3.47;;;1.58;;
10458;SDS011;5277;48.722;8.736;2023-05-10T04:21:14;4.18;;;1.40;;
10458;SDS011;5277;48.722;8.736;2023-05-10T04:23:40;3.40;;;1.83;;
10458;SDS011;5277;48.722;8.736;2023-05-10T04:26:08;2.78;;;1.50;;
10458;SDS011;5277;48.722;8.736;2023-05-10T04:28:34;5.13;;;1.40;;
10458;SDS011;5277;48.722;8.736;2023-05-10T04:31:03;8.25;;;1.55;;
10458;SDS011;5277;48.722;8.736;2023-05-10T04:33:39;6.80;;;1.40;;
10458;SDS011;5277;48.722;8.736;2023-05-10T04:36:05;3.67;;;1.50;;
10458;SDS011;5277;48.722;8.736;2023-05-10T04:38:31;10.20;;;2.40;;
10458;SDS011;5277;48.722;8.736;2023-05-10T04:41:03;2.15;;;1.90;;
10458;SDS011;5277;48.722;8.736;2023-05-10T04:43:32;5.78;;;1.65;;
10458;SDS011;5277;48.722;8.736;2023-05-10T04:45:58;7.97;;;1.52;;
10458;SDS011;5277;48.722;8.736;2023-05-10T04:48:24;6.10;;;1.75;;
10458;SDS011;5277;48.722;8.736;2023-05-10T04:50:55;3.97;;;1.40;;
10458;SDS011;5277;48.722;8.736;2023-05-10T04:53:23;2.50;;;1.40;;
10458;SDS011;5277;48.722;8.736;2023-05-10T04:55:49;3.78;;;1.60;;
10458;SDS011;5277;48.722;8.736;2023-05-10T04:58:15;3.38;;;1.60;;
10458;SDS011;5277;48.722;8.736;2023-05-10T05:00:41;3.72;;;1.50;;
10458;SDS011;5277;48.722;8.736;2023-05-10T05:03:07;4.15;;;1.60;;
10458;SDS011;5277;48.722;8.736;2023-05-10T05:05:33;3.88;;;1.48;;
10458;SDS011;5277;48.722;8.736;2023-05-10T05:07:58;3.03;;;1.60;;
10458;SDS011;5277;48.722;8.736;2023-05-10T05:10:24;5.78;;;2.40;;
10458;SDS011;5277;48.722;8.736;2023-05-10T05:12:49;2.40;;;1.83;;
10458;SDS011;5277;48.722;8.736;2023-05-10T05:15:15;2.25;;;1.77;;
10458;SDS011;5277;48.722;8.736;2023-05-10T05:17:41;3.65;;;1.70;;
10458;SDS011;5277;48.722;8.736;2023-05-10T05:20:08;6.07;;;4.95;;
10458;SDS011;5277;48.722;8.736;2023-05-10T05:22:35;5.93;;;2.25;;
10458;SDS011;5277;48.722;8.736;2023-05-10T05:25:01;5.63;;;2.30;;
10458;SDS011;5277;48.722;8.736;2023-05-10T05:27:28;2.53;;;1.80;;
10458;SDS011;5277;48.722;8.736;2023-05-10T05:29:54;1.85;;;1.60;;
10458;SDS011;5277;48.722;8.736;2023-05-10T05:32:21;2.00;;;1.20;;
10458;SDS011;5277;48.722;8.736;2023-05-10T05:34:50;3.80;;;1.52;;
10458;SDS011;5277;48.722;8.736;2023-05-10T05:37:16;3.17;;;1.27;;
10458;SDS011;5277;48.722;8.736;2023-05-10T05:39:44;7.38;;;1.50;;
10458;SDS011;5277;48.722;8.736;2023-05-10T05:42:10;2.88;;;1.45;;
10458;SDS011;5277;48.722;8.736;2023-05-10T05:44:39;3.63;;;1.67;;
10458;SDS011;5277;48.722;8.736;2023-05-10T05:47:05;4.50;;;1.20;;
10458;SDS011;5277;48.722;8.736;2023-05-10T05:49:31;5.28;;;1.35;;
10458;SDS011;5277;48.722;8.736;2023-05-10T05:52:01;6.45;;;1.63;;
10458;SDS011;5277;48.722;8.736;2023-05-10T05:54:30;4.63;;;1.60;;
10458;SDS011;5277;48.722;8.736;2023-05-10T05:56:57;2.42;;;1.60;;
10458;SDS011;5277;48.722;8.736;2023-05-10T05:59:23;4.30;;;1.65;;
10458;SDS011;5277;48.722;8.736;2023-05-10T06:01:50;2.95;;;1.70;;
10458;SDS011;5277;48.722;8.736;2023-05-10T06:04:19;2.10;;;1.80;;
10458;SDS011;5277;48.722;8.736;2023-05-10T06:06:45;5.47;;;1.80;;
10458;SDS011;5277;48.722;8.736;2023-05-10T06:09:11;2.00;;;1.58;;
10458;SDS011;5277;48.722;8.736;2023-05-10T06:11:37;4.20;;;1.40;;
10458;SDS011;5277;48.722;8.736;2023-05-10T06:14:03;2.80;;;1.48;;
10458;SDS011;5277;48.722;8.736;2023-05-10T06:16:30;1.77;;;1.33;;
10458;SDS011;5277;48.722;8.736;2023-05-10T06:18:56;2.63;;;1.60;;
10458;SDS011;5277;48.722;8.736;2023-05-10T06:21:22;2.47;;;1.50;;
10458;SDS011;5277;48.722;8.736;2023-05-10T06:23:48;1.70;;;1.60;;
10458;SDS011;5277;48.722;8.736;2023-05-10T06:26:13;2.35;;;1.67;;
10458;SDS011;5277;48.722;8.736;2023-05-10T06:28:39;4.65;;;2.15;;
10458;SDS011;5277;48.722;8.736;2023-05-10T06:31:06;1.73;;;1.30;;
10458;SDS011;5277;48.722;8.736;2023-05-10T06:33:32;1.48;;;1.33;;
10458;SDS011;5277;48.722;8.736;2023-05-10T06:35:58;4.63;;;1.30;;
10458;SDS011;5277;48.722;8.736;2023-05-10T06:38:24;3.03;;;1.48;;
10458;SDS011;5277;48.722;8.736;2023-05-10T06:40:49;5.72;;;1.63;;
10458;SDS011;5277;48.722;8.736;2023-05-10T06:43:15;3.90;;;1.45;;
10458;SDS011;5277;48.722;8.736;2023-05-10T06:45:41;5.10;;;1.40;;
10458;SDS011;5277;48.722;8.736;2023-05-10T06:48:07;2.15;;;1.40;;
10458;SDS011;5277;48.722;8.736;2023-05-10T06:50:33;4.80;;;1.60;;
10458;SDS011;5277;48.722;8.736;2023-05-10T06:52:58;4.32;;;1.50;;
10458;SDS011;5277;48.722;8.736;2023-05-10T06:55:25;6.75;;;1.40;;
10458;SDS011;5277;48.722;8.736;2023-05-10T06:57:51;3.38;;;1.85;;
10458;SDS011;5277;48.722;8.736;2023-05-10T07:00:17;2.42;;;1.40;;
10458;SDS011;5277;48.722;8.736;2023-05-10T07:02:43;3.08;;;1.38;;
10458;SDS011;5277;48.722;8.736;2023-05-10T07:05:09;3.50;;;1.50;;
10458;SDS011;5277;48.722;8.736;2023-05-10T07:07:35;3.78;;;1.52;;
10458;SDS011;5277;48.722;8.736;2023-05-10T07:10:00;2.03;;;1.13;;
10458;SDS011;5277;48.722;8.736;2023-05-10T07:12:26;4.38;;;1.27;;
10458;SDS011;5277;48.722;8.736;2023-05-10T07:14:52;3.88;;;1.20;;
10458;SDS011;5277;48.722;8.736;2023-05-10T07:17:18;2.70;;;0.80;;
10458;SDS011;5277;48.722;8.736;2023-05-10T07:19:43;15.30;;;1.55;;
10458;SDS011;5277;48.722;8.736;2023-05-10T07:22:09;2.88;;;1.30;;
10458;SDS011;5277;48.722;8.736;2023-05-10T07:24:34;4.70;;;1.00;;
10458;SDS011;5277;48.722;8.736;2023-05-10T07:27:01;2.88;;;1.08;;
10458;SDS011;5277;48.722;8.736;2023-05-10T07:29:26;1.23;;;0.82;;
10458;SDS011;5277;48.722;8.736;2023-05-10T07:31:52;2.70;;;1.13;;
10458;SDS011;5277;48.722;8.736;2023-05-10T07:34:18;7.72;;;0.95;;
10458;SDS011;5277;48.722;8.736;2023-05-10T07:36:43;12.13;;;1.40;;
10458;SDS011;5277;48.722;8.736;2023-05-10T07:39:09;3.25;;;0.70;;
10458;SDS011;5277;48.722;8.736;2023-05-10T07:41:35;1.95;;;0.80;;
10458;SDS011;5277;48.722;8.736;2023-05-10T07:44:02;1.25;;;0.65;;
10458;SDS011;5277;48.722;8.736;2023-05-10T07:46:28;1.58;;;0.80;;
10458;SDS011;5277;48.722;8.736;2023-05-10T07:48:54;2.17;;;0.65;;
10458;SDS011;5277;48.722;8.736;2023-05-10T07:51:20;2.03;;;0.80;;
10458;SDS011;5277;48.722;8.736;2023-05-10T07:53:46;2.70;;;0.93;;
10458;SDS011;5277;48.722;8.736;2023-05-10T07:56:22;1.27;;;0.60;;
10458;SDS011;5277;48.722;8.736;2023-05-10T07:58:58;8.90;;;0.93;;
10458;SDS011;5277;48.722;8.736;2023-05-10T08:01:24;7.25;;;0.90;;
10458;SDS011;5277;48.722;8.736;2023-05-10T08:03:51;5.13;;;0.68;;
10458;SDS011;5277;48.722;8.736;2023-05-10T08:06:18;3.28;;;0.65;;
10458;SDS011;5277;48.722;8.736;2023-05-10T08:08:48;4.00;;;0.90;;
10458;SDS011;5277;48.722;8.736;2023-05-10T08:11:15;3.25;;;0.75;;
10458;SDS011;5277;48.722;8.736;2023-05-10T08:13:44;1.13;;;0.60;;
10458;SDS011;5277;48.722;8.736;2023-05-10T08:16:10;4.65;;;0.80;;
10458;SDS011;5277;48.722;8.736;2023-05-10T08:18:36;3.80;;;0.70;;
10458;SDS011;5277;48.722;8.736;2023-05-10T08:21:02;3.63;;;0.73;;
10458;SDS011;5277;48.722;8.736;2023-05-10T08:23:28;2.35;;;0.75;;
10458;SDS011;5277;48.722;8.736;2023-05-10T08:25:53;2.30;;;0.60;;
10458;SDS011;5277;48.722;8.736;2023-05-10T08:28:19;1.65;;;0.70;;
10458;SDS011;5277;48.722;8.736;2023-05-10T08:30:44;3.25;;;0.63;;
10458;SDS011;5277;48.722;8.736;2023-05-10T08:33:10;2.88;;;0.50;;
10458;SDS011;5277;48.722;8.736;2023-05-10T08:35:36;4.10;;;1.13;;
10458;SDS011;5277;48.722;8.736;2023-05-10T08:38:01;2.25;;;0.60;;
10458;SDS011;5277;48.722;8.736;2023-05-10T08:40:27;1.40;;;0.70;;
10458;SDS011;5277;48.722;8.736;2023-05-10T08:43:06;1.65;;;0.80;;
10458;SDS011;5277;48.722;8.736;2023-05-10T08:45:36;3.30;;;0.60;;
10458;SDS011;5277;48.722;8.736;2023-05-10T08:48:07;2.72;;;0.70;;
10458;SDS011;5277;48.722;8.736;2023-05-10T08:50:38;0.95;;;0.50;;
10458;SDS011;5277;48.722;8.736;2023-05-10T08:53:13;1.48;;;0.70;;
10458;SDS011;5277;48.722;8.736;2023-05-10T08:55:41;1.55;;;0.73;;
10458;SDS011;5277;48.722;8.736;2023-05-10T08:58:08;4.43;;;0.77;;
10458;SDS011;5277;48.722;8.736;2023-05-10T09:00:34;1.77;;;0.40;;
10458;SDS011;5277;48.722;8.736;2023-05-10T09:03:01;0.57;;;0.50;;
10458;SDS011;5277;48.722;8.736;2023-05-10T09:05:28;0.75;;;0.50;;
10458;SDS011;5277;48.722;8.736;2023-05-10T09:07:54;2.58;;;0.52;;
10458;SDS011;5277;48.722;8.736;2023-05-10T09:10:20;4.82;;;1.00;;
10458;SDS011;5277;48.722;8.736;2023-05-10T09:12:46;1.45;;;0.60;;
10458;SDS011;5277;48.722;8.736;2023-05-10T09:15:16;1.80;;;0.68;;
10458;SDS011;5277;48.722;8.736;2023-05-10T09:17:44;8.50;;;0.70;;
10458;SDS011;5277;48.722;8.736;2023-05-10T09:20:10;0.65;;;0.43;;
10458;SDS011;5277;48.722;8.736;2023-05-10T09:22:36;4.05;;;0.68;;
10458;SDS011;5277;48.722;8.736;2023-05-10T09:25:09;4.43;;;0.47;;
10458;SDS011;5277;48.722;8.736;2023-05-10T09:27:36;3.38;;;1.00;;
10458;SDS011;5277;48.722;8.736;2023-05-10T09:30:03;1.02;;;0.70;;
10458;SDS011;5277;48.722;8.736;2023-05-10T09:32:40;3.70;;;0.70;;
10458;SDS011;5277;48.722;8.736;2023-05-10T09:35:10;4.40;;;0.57;;
10458;SDS011;5277;48.722;8.736;2023-05-10T09:37:40;4.32;;;0.68;;
10458;SDS011;5277;48.722;8.736;2023-05-10T09:40:07;5.38;;;0.93;;
10458;SDS011;5277;48.722;8.736;2023-05-10T09:42:35;2.45;;;0.60;;
10458;SDS011;5277;48.722;8.736;2023-05-10T09:45:04;2.45;;;0.60;;
10458;SDS011;5277;48.722;8.736;2023-05-10T09:47:32;2.35;;;0.47;;
10458;SDS011;5277;48.722;8.736;2023-05-10T09:49:59;1.65;;;0.60;;
10458;SDS011;5277;48.722;8.736;2023-05-10T09:52:48;1.17;;;0.70;;
10458;SDS011;5277;48.722;8.736;2023-05-10T09:55:18;2.47;;;1.00;;
10458;SDS011;5277;48.722;8.736;2023-05-10T09:57:46;0.88;;;0.73;;
10458;SDS011;5277;48.722;8.736;2023-05-10T10:00:16;3.25;;;0.75;;
10458;SDS011;5277;48.722;8.736;2023-05-10T10:02:53;5.68;;;0.88;;
10458;SDS011;5277;48.722;8.736;2023-05-10T10:05:20;2.20;;;0.70;;
10458;SDS011;5277;48.722;8.736;2023-05-10T10:07:46;1.02;;;0.73;;
10458;SDS011;5277;48.722;8.736;2023-05-10T10:10:14;3.13;;;0.70;;
10458;SDS011;5277;48.722;8.736;2023-05-10T10:12:40;5.80;;;0.90;;
10458;SDS011;5277;48.722;8.736;2023-05-10T10:15:07;3.65;;;0.60;;
10458;SDS011;5277;48.722;8.736;2023-05-10T10:17:35;1.08;;;0.43;;
10458;SDS011;5277;48.722;8.736;2023-05-10T10:20:03;14.75;;;0.98;;
10458;SDS011;5277;48.722;8.736;2023-05-10T10:22:28;1.17;;;0.60;;
10458;SDS011;5277;48.722;8.736;2023-05-10T10:24:54;1.23;;;0.60;;
10458;SDS011;5277;48.722;8.736;2023-05-10T10:27:24;4.78;;;0.75;;
10458;SDS011;5277;48.722;8.736;2023-05-10T10:30:13;2.08;;;0.70;;
10458;SDS011;5277;48.722;8.736;2023-05-10T10:36:07;2.13;;;0.60;;
10458;SDS011;5277;48.722;8.736;2023-05-10T10:41:26;1.58;;;0.50;;
10458;SDS011;5277;48.722;8.736;2023-05-10T10:44:22;1.38;;;0.77;;
10458;SDS011;5277;48.722;8.736;2023-05-10T10:49:48;3.75;;;0.70;;
10458;SDS011;5277;48.722;8.736;2023-05-10T10:52:27;3.00;;;0.60;;
10458;SDS011;5277;48.722;8.736;2023-05-10T11:00:24;1.10;;;0.70;;
10458;SDS011;5277;48.722;8.736;2023-05-10T11:05:38;1.85;;;0.60;;
10458;SDS011;5277;48.722;8.736;2023-05-10T11:10:34;2.25;;;0.80;;
10458;SDS011;5277;48.722;8.736;2023-05-10T11:13:01;1.52;;;0.70;;
10458;SDS011;5277;48.722;8.736;2023-05-10T11:17:56;3.85;;;1.02;;
10458;SDS011;5277;48.722;8.736;2023-05-10T11:20:21;6.03;;;1.05;;
10458;SDS011;5277;48.722;8.736;2023-05-10T11:22:53;2.28;;;0.90;;
10458;SDS011;5277;48.722;8.736;2023-05-10T11:25:19;4.30;;;1.00;;
10458;SDS011;5277;48.722;8.736;2023-05-10T11:27:46;1.80;;;0.60;;
10458;SDS011;5277;48.722;8.736;2023-05-10T11:30:13;3.67;;;0.75;;
10458;SDS011;5277;48.722;8.736;2023-05-10T11:32:40;5.07;;;0.77;;
10458;SDS011;5277;48.722;8.736;2023-05-10T11:35:09;1.35;;;0.80;;
10458;SDS011;5277;48.722;8.736;2023-05-10T11:37:35;2.78;;;1.20;;
10458;SDS011;5277;48.722;8.736;2023-05-10T11:40:02;1.58;;;0.90;;
10458;SDS011;5277;48.722;8.736;2023-05-10T11:42:28;6.43;;;1.33;;
10458;SDS011;5277;48.722;8.736;2023-05-10T11:44:54;3.50;;;1.60;;
10458;SDS011;5277;48.722;8.736;2023-05-10T11:47:19;2.55;;;1.13;;
10458;SDS011;5277;48.722;8.736;2023-05-10T11:49:47;2.60;;;0.80;;
10458;SDS011;5277;48.722;8.736;2023-05-10T11:52:13;1.92;;;0.82;;
10458;SDS011;5277;48.722;8.736;2023-05-10T11:54:45;3.03;;;0.82;;
10458;SDS011;5277;48.722;8.736;2023-05-10T11:57:17;1.65;;;0.70;;
10458;SDS011;5277;48.722;8.736;2023-05-10T11:59:45;4.75;;;1.20;;
10458;SDS011;5277;48.722;8.736;2023-05-10T12:02:11;3.25;;;1.17;;
10458;SDS011;5277;48.722;8.736;2023-05-10T12:04:38;2.20;;;0.88;;
10458;SDS011;5277;48.722;8.736;2023-05-10T12:07:04;4.53;;;1.00;;
10458;SDS011;5277;48.722;8.736;2023-05-10T12:09:30;1.95;;;0.90;;
10458;SDS011;5277;48.722;8.736;2023-05-10T12:11:55;6.70;;;1.00;;
10458;SDS011;5277;48.722;8.736;2023-05-10T12:14:22;2.03;;;0.95;;
10458;SDS011;5277;48.722;8.736;2023-05-10T12:16:49;10.18;;;1.17;;
10458;SDS011;5277;48.722;8.736;2023-05-10T12:19:18;2.47;;;0.90;;
10458;SDS011;5277;48.722;8.736;2023-05-10T12:21:44;3.10;;;0.90;;
10458;SDS011;5277;48.722;8.736;2023-05-10T12:24:10;3.30;;;1.00;;
10458;SDS011;5277;48.722;8.736;2023-05-10T12:26:38;2.75;;;0.93;;
10458;SDS011;5277;48.722;8.736;2023-05-10T12:31:58;3.78;;;0.90;;
10458;SDS011;5277;48.722;8.736;2023-05-10T12:34:25;1.83;;;0.73;;
10458;SDS011;5277;48.722;8.736;2023-05-10T12:36:58;2.17;;;0.80;;
10458;SDS011;5277;48.722;8.736;2023-05-10T12:39:25;1.52;;;0.70;;
10458;SDS011;5277;48.722;8.736;2023-05-10T12:41:51;4.32;;;0.90;;
10458;SDS011;5277;48.722;8.736;2023-05-10T12:44:17;7.07;;;1.00;;
10458;SDS011;5277;48.722;8.736;2023-05-10T12:46:44;2.35;;;0.90;;
10458;SDS011;5277;48.722;8.736;2023-05-10T12:49:12;1.95;;;0.80;;
10458;SDS011;5277;48.722;8.736;2023-05-10T12:51:38;5.00;;;0.75;;
10458;SDS011;5277;48.722;8.736;2023-05-10T12:54:04;5.35;;;0.98;;
10458;SDS011;5277;48.722;8.736;2023-05-10T12:56:33;2.80;;;0.73;;
10458;SDS011;5277;48.722;8.736;2023-05-10T12:59:04;3.50;;;1.25;;
10458;SDS011;5277;48.722;8.736;2023-05-10T13:01:32;2.38;;;0.85;;
10458;SDS011;5277;48.722;8.736;2023-05-10T13:03:58;5.65;;;0.90;;
10458;SDS011;5277;48.722;8.736;2023-05-10T13:06:25;4.10;;;0.93;;
10458;SDS011;5277;48.722;8.736;2023-05-10T13:08:51;1.20;;;0.55;;
10458;SDS011;5277;48.722;8.736;2023-05-10T13:11:17;1.67;;;0.85;;
10458;SDS011;5277;48.722;8.736;2023-05-10T13:13:44;3.08;;;0.80;;
10458;SDS011;5277;48.722;8.736;2023-05-10T13:16:10;3.15;;;1.00;;
10458;SDS011;5277;48.722;8.736;2023-05-10T13:18:36;4.88;;;1.10;;
10458;SDS011;5277;48.722;8.736;2023-05-10T13:21:02;4.80;;;1.00;;
10458;SDS011;5277;48.722;8.736;2023-05-10T13:23:30;1.98;;;0.80;;
10458;SDS011;5277;48.722;8.736;2023-05-10T13:25:56;1.92;;;0.82;;
10458;SDS011;5277;48.722;8.736;2023-05-10T13:28:22;3.05;;;0.70;;
10458;SDS011;5277;48.722;8.736;2023-05-10T13:30:47;6.03;;;0.90;;
10458;SDS011;5277;48.722;8.736;2023-05-10T13:33:13;5.32;;;0.80;;
10458;SDS011;5277;48.722;8.736;2023-05-10T13:35:39;1.80;;;1.00;;
10458;SDS011;5277;48.722;8.736;2023-05-10T13:38:05;3.08;;;1.00;;
10458;SDS011;5277;48.722;8.736;2023-05-10T13:40:32;4.80;;;0.93;;
10458;SDS011;5277;48.722;8.736;2023-05-10T13:42:58;1.20;;;0.90;;
10458;SDS011;5277;48.722;8.736;2023-05-10T13:45:25;1.25;;;0.65;;
10458;SDS011;5277;48.722;8.736;2023-05-10T13:47:50;1.80;;;1.05;;
10458;SDS011;5277;48.722;8.736;2023-05-10T13:50:17;3.88;;;0.95;;
10458;SDS011;5277;48.722;8.736;2023-05-10T13:52:43;3.17;;;0.90;;
10458;SDS011;5277;48.722;8.736;2023-05-10T13:55:09;2.90;;;0.90;;
10458;SDS011;5277;48.722;8.736;2023-05-10T13:57:37;1.95;;;0.93;;
10458;SDS011;5277;48.722;8.736;2023-05-10T14:00:03;1.25;;;0.70;;
10458;SDS011;5277;48.722;8.736;2023-05-10T14:02:30;3.53;;;0.95;;
10458;SDS011;5277;48.722;8.736;2023-05-10T14:04:56;6.15;;;0.75;;
10458;SDS011;5277;48.722;8.736;2023-05-10T14:07:22;2.85;;;0.70;;
10458;SDS011;5277;48.722;8.736;2023-05-10T14:09:48;6.13;;;0.68;;
10458;SDS011;5277;48.722;8.736;2023-05-10T14:12:14;4.72;;;0.68;;
10458;SDS011;5277;48.722;8.736;2023-05-10T14:14:40;0.98;;;0.50;;
10458;SDS011;5277;48.722;8.736;2023-05-10T14:17:06;2.45;;;0.80;;
10458;SDS011;5277;48.722;8.736;2023-05-10T14:19:32;2.95;;;0.80;;
10458;SDS011;5277;48.722;8.736;2023-05-10T14:21:59;2.53;;;0.70;;
10458;SDS011;5277;48.722;8.736;2023-05-10T14:24:24;5.47;;;0.90;;
10458;SDS011;5277;48.722;8.736;2023-05-10T14:26:50;2.55;;;0.80;;
10458;SDS011;5277;48.722;8.736;2023-05-10T14:29:18;5.47;;;0.73;;
10458;SDS011;5277;48.722;8.736;2023-05-10T14:31:45;2.15;;;0.98;;
10458;SDS011;5277;48.722;8.736;2023-05-10T14:34:11;2.17;;;0.60;;
10458;SDS011;5277;48.722;8.736;2023-05-10T14:36:36;2.17;;;0.60;;
10458;SDS011;5277;48.722;8.736;2023-05-10T14:39:02;3.67;;;0.77;;
10458;SDS011;5277;48.722;8.736;2023-05-10T14:41:28;1.45;;;0.70;;
10458;SDS011;5277;48.722;8.736;2023-05-10T14:43:55;4.43;;;0.82;;
10458;SDS011;5277;48.722;8.736;2023-05-10T14:46:21;1.95;;;0.55;;
10458;SDS011;5277;48.722;8.736;2023-05-10T14:48:46;2.85;;;0.90;;
10458;SDS011;5277;48.722;8.736;2023-05-10T14:51:12;3.22;;;0.60;;
10458;SDS011;5277;48.722;8.736;2023-05-10T14:53:38;0.77;;;0.60;;
10458;SDS011;5277;48.722;8.736;2023-05-10T14:56:03;4.97;;;1.00;;
10458;SDS011;5277;48.722;8.736;2023-05-10T14:58:29;1.60;;;0.73;;
10458;SDS011;5277;48.722;8.736;2023-05-10T15:00:55;2.45;;;1.10;;
10458;SDS011;5277;48.722;8.736;2023-05-10T15:03:22;1.15;;;0.60;;
10458;SDS011;5277;48.722;8.736;2023-05-10T15:05:47;4.30;;;0.77;;
10458;SDS011;5277;48.722;8.736;2023-05-10T15:08:13;2.00;;;0.60;;
10458;SDS011;5277;48.722;8.736;2023-05-10T15:10:39;3.72;;;0.80;;
10458;SDS011;5277;48.722;8.736;2023-05-10T15:13:05;1.52;;;0.73;;
10458;SDS011;5277;48.722;8.736;2023-05-10T15:15:31;1.95;;;0.70;;
10458;SDS011;5277;48.722;8.736;2023-05-10T15:17:57;1.88;;;0.70;;
10458;SDS011;5277;48.722;8.736;2023-05-10T15:20:23;1.10;;;0.50;;
10458;SDS011;5277;48.722;8.736;2023-05-10T15:22:49;0.68;;;0.50;;
10458;SDS011;5277;48.722;8.736;2023-05-10T15:25:15;6.03;;;0.70;;
10458;SDS011;5277;48.722;8.736;2023-05-10T15:27:41;1.10;;;0.65;;
10458;SDS011;5277;48.722;8.736;2023-05-10T15:30:11;2.55;;;0.60;;
10458;SDS011;5277;48.722;8.736;2023-05-10T15:32:37;0.82;;;0.68;;
10458;SDS011;5277;48.722;8.736;2023-05-10T15:35:05;0.65;;;0.40;;
10458;SDS011;5277;48.722;8.736;2023-05-10T15:37:31;1.90;;;0.75;;
10458;SDS011;5277;48.722;8.736;2023-05-10T15:39:57;3.40;;;0.70;;
10458;SDS011;5277;48.722;8.736;2023-05-10T15:42:28;3.95;;;0.80;;
10458;SDS011;5277;48.722;8.736;2023-05-10T15:44:57;4.07;;;0.70;;
10458;SDS011;5277;48.722;8.736;2023-05-10T15:47:24;0.80;;;0.43;;